Cote D IVoirian Star — A8SL4 — position and weather

sailwx.info

Track history (hours):
 
Tides and Currents Weather Stations Pressure Air Temp Water Temp Dewpoint Dewpoint Depression Visibility Wind Speed Wind Dir Waves Ship Positions

Cote D IVoirian Star

Last reported at 2017-Mar-21 18:15 UTC. Time now 2017-Mar-26 16:53 UTC.
Position N 07°35' W 014°05'.

Length 185 m; draft 8.2 m.

Type: Cargo ship. MMSI: 636014241.

Date/timePositionNaut miles runAvg speedWind from/ knotsBaromVisibWave heightAir tempDewpointWater temp
2017-Mar-21 18:15N 07°35' W 014°05'1520.4
2017-Mar-21 17:31N 07°44' W 014°17'2020.1
2017-Mar-21 16:30N 07°57' W 014°32'1920.2
2017-Mar-21 15:33N 08°10' W 014°47'2020.1
2017-Mar-21 14:33N 08°23' W 015°03'2220.1
2017-Mar-21 13:28N 08°37' W 015°20'1820.1
2017-Mar-21 12:33N 08°48' W 015°34'2719.8
2017-Mar-21 11:11N 09°06' W 015°55'1220.0
2017-Mar-21 10:33N 09°14' W 016°05'  
2017-Mar-18 23:32N 27°51' W 016°22'2019.5
2017-Mar-18 22:31N 28°09' W 016°13'1919.8
2017-Mar-18 21:33N 28°23' W 015°58'  
2017-Mar-16 02:27N 48°19' W 006°21'1818.9
2017-Mar-16 01:29N 48°35' W 006°08'2019.9
2017-Mar-16 00:29N 48°51' W 005°51'2020.0
2017-Mar-15 23:30N 49°01' W 005°25'1920.1
2017-Mar-15 22:33N 49°11' W 005°00'2319.3
2017-Mar-15 21:22N 49°21' W 004°29'1518.0
2017-Mar-15 20:33N 49°29' W 004°10'1717.3
2017-Mar-15 19:33N 49°38' W 003°48'1716.7
2017-Mar-15 18:33N 49°46' W 003°25'1818.4
2017-Mar-15 17:33N 49°55' W 002°60'2020.5
2017-Mar-15 16:33N 50°03' W 002°31'2322.6
2017-Mar-15 15:34N 50°11' W 001°58'2322.6
2017-Mar-15 14:31N 50°18' W 001°23'2121.1
2017-Mar-15 13:32N 50°23' W 000°51'1818.8
2017-Mar-15 12:33N 50°26' W 000°23'1817.9
2017-Mar-15 11:33N 50°33' E 000°04'1716.8
2017-Mar-15 10:33N 50°37' E 000°29'1817.7
2017-Mar-15 09:33N 50°47' E 000°53'2120.6
2017-Mar-15 08:33N 50°60' E 001°18'2222.0
2017-Mar-15 07:33N 51°14' E 001°45'1717.2
2017-Mar-15 06:33N 51°23' E 002°08'1817.9
2017-Mar-15 05:33N 51°23' E 002°37'1413.6
2017-Mar-15 04:34N 51°23' E 002°59'1413.9
2017-Mar-15 03:33N 51°24' E 003°21'1211.7
2017-Mar-15 02:33N 51°26' E 003°39'10 9.5
2017-Mar-15 01:33N 51°21' E 003°52'7 7.1
2017-Mar-15 00:33N 51°24' E 004°02'9 8.6
2017-Mar-14 23:34N 51°21' E 004°15'5 0.5
2017-Mar-14 12:27N 51°16' E 004°15'0 0.0
2017-Mar-14 11:33N 51°16' E 004°15'0 0.0
2017-Mar-14 10:33N 51°16' E 004°15'0 0.0
2017-Mar-14 09:33N 51°16' E 004°15'0 0.0
2017-Mar-14 08:33N 51°16' E 004°15'0 0.0
2017-Mar-14 07:33N 51°16' E 004°15'0 0.0
2017-Mar-14 06:33N 51°16' E 004°15'0 0.0
2017-Mar-14 05:30N 51°16' E 004°15'0 0.0
2017-Mar-14 04:33N 51°16' E 004°15'0 0.0
2017-Mar-14 03:33N 51°16' E 004°15'0 0.0
2017-Mar-14 02:30N 51°16' E 004°15'0 0.0
2017-Mar-14 01:33N 51°16' E 004°15'0 0.0
2017-Mar-14 00:30N 51°16' E 004°15'0 0.0
2017-Mar-13 23:33N 51°16' E 004°15'0 0.0
2017-Mar-13 22:33N 51°16' E 004°15'0 0.0
2017-Mar-13 21:30N 51°16' E 004°15'0 0.0
2017-Mar-13 20:33N 51°16' E 004°15'0 0.0
2017-Mar-13 19:33N 51°16' E 004°15'0 0.0
2017-Mar-13 18:30N 51°16' E 004°15'0 0.0
2017-Mar-13 17:33N 51°16' E 004°15'0 0.0
2017-Mar-13 16:33N 51°16' E 004°15'0 0.0
2017-Mar-13 15:33N 51°16' E 004°15'0 0.0
2017-Mar-13 14:33N 51°16' E 004°15'0 0.0
2017-Mar-13 13:33N 51°16' E 004°15'0 0.0
2017-Mar-13 12:33N 51°16' E 004°15'0 0.0
2017-Mar-13 11:33N 51°16' E 004°15'0 0.0
2017-Mar-13 10:33N 51°16' E 004°15'0 0.0
2017-Mar-13 09:33N 51°16' E 004°15'0 0.0
2017-Mar-13 08:33N 51°16' E 004°15'1 0.9
2017-Mar-13 07:33N 51°17' E 004°15'3 2.8
2017-Mar-13 06:33N 51°19' E 004°16'8 7.9
2017-Mar-13 05:33N 51°22' E 004°05'6 6.3
2017-Mar-13 04:33N 51°22' E 003°55'1010.5
2017-Mar-13 03:33N 51°26' E 003°40'1111.0
2017-Mar-13 02:33N 51°24' E 003°22'1616.2
2017-Mar-13 01:33N 51°22' E 002°56'1212.4
2017-Mar-13 00:33N 51°22' E 002°37'1413.5
2017-Mar-12 23:33N 51°18' E 002°16'2019.8
2017-Mar-12 22:33N 51°09' E 001°48'1918.5
2017-Mar-12 21:33N 50°56' E 001°27'1817.7
2017-Mar-12 20:33N 50°40' E 001°15'2018.9
2017-Mar-12 19:30N 50°29' E 000°49'1919.1
2017-Mar-12 18:30N 50°23' E 000°20'1717.9
2017-Mar-12 17:34N 50°20' W 000°06'1918.6
2017-Mar-12 16:33N 50°29' W 000°31'1817.8
2017-Mar-12 15:33N 50°39' W 000°54'1212.4
2017-Mar-12 14:34N 50°48' W 001°07'1 0.9
2017-Mar-12 13:32N 50°49' W 001°05'0 0.0
2017-Mar-12 12:33N 50°49' W 001°05'0 0.0
2017-Mar-12 11:33N 50°49' W 001°05'0 0.0
2017-Mar-12 10:33N 50°49' W 001°05'0 0.0
2017-Mar-12 09:33N 50°49' W 001°05'0 0.0
2017-Mar-12 08:33N 50°49' W 001°05'0 0.0
2017-Mar-12 07:33N 50°49' W 001°05'0 0.0
2017-Mar-12 06:33N 50°49' W 001°05'0 0.0
2017-Mar-12 05:33N 50°49' W 001°05'0 0.0
2017-Mar-12 04:33N 50°49' W 001°05'0 0.0
2017-Mar-12 03:33N 50°49' W 001°05'0 0.0
2017-Mar-12 02:33N 50°49' W 001°05'0 0.0
2017-Mar-12 01:33N 50°49' W 001°05'0 0.0
2017-Mar-12 00:33N 50°49' W 001°05'0 0.0
2017-Mar-11 23:33N 50°49' W 001°05'0 0.0
2017-Mar-11 22:33N 50°49' W 001°05'0 0.0
2017-Mar-11 21:33N 50°49' W 001°05'0 0.0
2017-Mar-11 20:33N 50°49' W 001°05'0 0.0
2017-Mar-11 19:33N 50°49' W 001°05'0 0.1
2017-Mar-11 18:33N 50°49' W 001°06'  
Track history (hours):
 
Tides and Currents Weather Stations Pressure Air Temp Water Temp Dewpoint Dewpoint Depression Visibility Wind Speed Wind Dir Waves Ship Positions

Cote D IVoirian Star

Last reported at 2017-Mar-21 18:15 UTC. Time now 2017-Mar-26 16:53 UTC.
Position N 07°35' W 014°05'.

Length 185 m; draft 8.2 m.

Type: Cargo ship. MMSI: 636014241.

Date/timePositionNaut miles runAvg speedWind from/ knotsBaromVisibWave heightAir tempDewpointWater temp
2017-Mar-21 18:15N 07°35' W 014°05'1520.4
2017-Mar-21 17:31N 07°44' W 014°17'2020.1
2017-Mar-21 16:30N 07°57' W 014°32'1920.2
2017-Mar-21 15:33N 08°10' W 014°47'2020.1
2017-Mar-21 14:33N 08°23' W 015°03'2220.1
2017-Mar-21 13:28N 08°37' W 015°20'1820.1
2017-Mar-21 12:33N 08°48' W 015°34'2719.8
2017-Mar-21 11:11N 09°06' W 015°55'1220.0
2017-Mar-21 10:33N 09°14' W 016°05'  
2017-Mar-18 23:32N 27°51' W 016°22'2019.5
2017-Mar-18 22:31N 28°09' W 016°13'1919.8
2017-Mar-18 21:33N 28°23' W 015°58'  
2017-Mar-16 02:27N 48°19' W 006°21'1818.9
2017-Mar-16 01:29N 48°35' W 006°08'2019.9
2017-Mar-16 00:29N 48°51' W 005°51'2020.0
2017-Mar-15 23:30N 49°01' W 005°25'1920.1
2017-Mar-15 22:33N 49°11' W 005°00'2319.3
2017-Mar-15 21:22N 49°21' W 004°29'1518.0
2017-Mar-15 20:33N 49°29' W 004°10'1717.3
2017-Mar-15 19:33N 49°38' W 003°48'1716.7
2017-Mar-15 18:33N 49°46' W 003°25'1818.4
2017-Mar-15 17:33N 49°55' W 002°60'2020.5
2017-Mar-15 16:33N 50°03' W 002°31'2322.6
2017-Mar-15 15:34N 50°11' W 001°58'2322.6
2017-Mar-15 14:31N 50°18' W 001°23'2121.1
2017-Mar-15 13:32N 50°23' W 000°51'1818.8
2017-Mar-15 12:33N 50°26' W 000°23'1817.9
2017-Mar-15 11:33N 50°33' E 000°04'1716.8
2017-Mar-15 10:33N 50°37' E 000°29'1817.7
2017-Mar-15 09:33N 50°47' E 000°53'2120.6
2017-Mar-15 08:33N 50°60' E 001°18'2222.0
2017-Mar-15 07:33N 51°14' E 001°45'1717.2
2017-Mar-15 06:33N 51°23' E 002°08'1817.9
2017-Mar-15 05:33N 51°23' E 002°37'1413.6
2017-Mar-15 04:34N 51°23' E 002°59'1413.9
2017-Mar-15 03:33N 51°24' E 003°21'1211.7
2017-Mar-15 02:33N 51°26' E 003°39'10 9.5
2017-Mar-15 01:33N 51°21' E 003°52'7 7.1
2017-Mar-15 00:33N 51°24' E 004°02'9 8.6
2017-Mar-14 23:34N 51°21' E 004°15'5 0.5
2017-Mar-14 12:27N 51°16' E 004°15'0 0.0
2017-Mar-14 11:33N 51°16' E 004°15'0 0.0
2017-Mar-14 10:33N 51°16' E 004°15'0 0.0
2017-Mar-14 09:33N 51°16' E 004°15'0 0.0
2017-Mar-14 08:33N 51°16' E 004°15'0 0.0
2017-Mar-14 07:33N 51°16' E 004°15'0 0.0
2017-Mar-14 06:33N 51°16' E 004°15'0 0.0
2017-Mar-14 05:30N 51°16' E 004°15'0 0.0
2017-Mar-14 04:33N 51°16' E 004°15'0 0.0
2017-Mar-14 03:33N 51°16' E 004°15'0 0.0
2017-Mar-14 02:30N 51°16' E 004°15'0 0.0
2017-Mar-14 01:33N 51°16' E 004°15'0 0.0
2017-Mar-14 00:30N 51°16' E 004°15'0 0.0
2017-Mar-13 23:33N 51°16' E 004°15'0 0.0
2017-Mar-13 22:33N 51°16' E 004°15'0 0.0
2017-Mar-13 21:30N 51°16' E 004°15'0 0.0
2017-Mar-13 20:33N 51°16' E 004°15'0 0.0
2017-Mar-13 19:33N 51°16' E 004°15'0 0.0
2017-Mar-13 18:30N 51°16' E 004°15'0 0.0
2017-Mar-13 17:33N 51°16' E 004°15'0 0.0
2017-Mar-13 16:33N 51°16' E 004°15'0 0.0
2017-Mar-13 15:33N 51°16' E 004°15'0 0.0
2017-Mar-13 14:33N 51°16' E 004°15'0 0.0
2017-Mar-13 13:33N 51°16' E 004°15'0 0.0
2017-Mar-13 12:33N 51°16' E 004°15'0 0.0
2017-Mar-13 11:33N 51°16' E 004°15'0 0.0
2017-Mar-13 10:33N 51°16' E 004°15'0 0.0
2017-Mar-13 09:33N 51°16' E 004°15'0 0.0
2017-Mar-13 08:33N 51°16' E 004°15'1 0.9
2017-Mar-13 07:33N 51°17' E 004°15'3 2.8
2017-Mar-13 06:33N 51°19' E 004°16'8 7.9
2017-Mar-13 05:33N 51°22' E 004°05'6 6.3
2017-Mar-13 04:33N 51°22' E 003°55'1010.5
2017-Mar-13 03:33N 51°26' E 003°40'1111.0
2017-Mar-13 02:33N 51°24' E 003°22'1616.2
2017-Mar-13 01:33N 51°22' E 002°56'1212.4
2017-Mar-13 00:33N 51°22' E 002°37'1413.5
2017-Mar-12 23:33N 51°18' E 002°16'2019.8
2017-Mar-12 22:33N 51°09' E 001°48'1918.5
2017-Mar-12 21:33N 50°56' E 001°27'1817.7
2017-Mar-12 20:33N 50°40' E 001°15'2018.9
2017-Mar-12 19:30N 50°29' E 000°49'1919.1
2017-Mar-12 18:30N 50°23' E 000°20'1717.9
2017-Mar-12 17:34N 50°20' W 000°06'1918.6
2017-Mar-12 16:33N 50°29' W 000°31'1817.8
2017-Mar-12 15:33N 50°39' W 000°54'1212.4
2017-Mar-12 14:34N 50°48' W 001°07'1 0.9
2017-Mar-12 13:32N 50°49' W 001°05'0 0.0
2017-Mar-12 12:33N 50°49' W 001°05'0 0.0
2017-Mar-12 11:33N 50°49' W 001°05'0 0.0
2017-Mar-12 10:33N 50°49' W 001°05'0 0.0
2017-Mar-12 09:33N 50°49' W 001°05'0 0.0
2017-Mar-12 08:33N 50°49' W 001°05'0 0.0
2017-Mar-12 07:33N 50°49' W 001°05'0 0.0
2017-Mar-12 06:33N 50°49' W 001°05'0 0.0
2017-Mar-12 05:33N 50°49' W 001°05'0 0.0
2017-Mar-12 04:33N 50°49' W 001°05'0 0.0
2017-Mar-12 03:33N 50°49' W 001°05'0 0.0
2017-Mar-12 02:33N 50°49' W 001°05'0 0.0
2017-Mar-12 01:33N 50°49' W 001°05'0 0.0
2017-Mar-12 00:33N 50°49' W 001°05'0 0.0
2017-Mar-11 23:33N 50°49' W 001°05'0 0.0
2017-Mar-11 22:33N 50°49' W 001°05'0 0.0
2017-Mar-11 21:33N 50°49' W 001°05'0 0.0
2017-Mar-11 20:33N 50°49' W 001°05'0 0.0
2017-Mar-11 19:33N 50°49' W 001°05'0 0.1
2017-Mar-11 18:33N 50°49' W 001°06'  

Dump ship's entire track history